Time;durP1;ratioP1;P1;durP2;ratioP2;P2;SDS_P1;SDS_P2;PMS_P1;PMS_P2;Temp;Humidity;BMP_temperature;BMP_pressure;BME280_temperature;BME280_humidity;BME280_pressure;Samples;Min_cycle;Max_cycle;Signal;HPM_P1;HPM_P2
2022/07/14 00:01:42;;;;;;;;;;;19.20;96.80;;;;;;4983892;28;19926;-86
2022/07/14 00:04:15;;;;;;;;;;;19.20;96.50;;;;;;4999854;28;19932;-87
2022/07/14 00:06:46;;;;;;;;;;;18.40;96.40;;;;;;4997554;28;19926;-87
2022/07/14 00:09:39;;;;;;;;;;;19.10;96.60;;;;;;4997422;28;19923;-87
2022/07/14 00:12:07;;;;;;;;;;;19.10;96.70;;;;;;4981889;28;19936;-86
2022/07/14 00:14:36;;;;;;;;;;;19.10;96.90;;;;;;5015575;28;19926;-87
2022/07/14 00:17:06;;;;;;;;;;;19.10;97.10;;;;;;5002588;28;19916;-87
2022/07/14 00:19:34;;;;;;;;;;;19.10;97.20;;;;;;4997054;28;19953;-86
2022/07/14 00:22:02;;;;;;;;;;;19.10;96.90;;;;;;4998561;28;19910;-87
2022/07/14 00:25:01;;;;;;;;;;;19.10;97.00;;;;;;4995877;28;19932;-86
2022/07/14 00:27:36;;;;;;;;;;;19.10;97.10;;;;;;4993593;28;19933;-86
2022/07/14 00:30:05;;;;;;;;;;;19.00;96.80;;;;;;4994412;28;19929;-86
2022/07/14 00:32:36;;;;;;;;;;;19.00;96.90;;;;;;4981404;28;19929;-86
2022/07/14 00:35:05;;;;;;;;;;;19.00;97.10;;;;;;4984921;28;20451;-86
2022/07/14 00:37:33;;;;;;;;;;;18.90;97.20;;;;;;5011697;28;19940;-85
2022/07/14 00:40:04;;;;;;;;;;;18.80;97.10;;;;;;4996511;28;19936;-87
2022/07/14 00:42:35;;;;;;;;;;;18.90;97.70;;;;;;5008015;28;20301;-87
2022/07/14 00:45:06;;;;;;;;;;;18.80;97.50;;;;;;4976821;28;19934;-88
2022/07/14 00:47:38;;;;;;;;;;;18.80;97.30;;;;;;4994312;28;20269;-87
2022/07/14 00:50:11;;;;;;;;;;;18.80;97.30;;;;;;4993892;28;19926;-87
2022/07/14 00:52:45;;;;;;;;;;;18.70;97.20;;;;;;4983441;28;19926;-88
2022/07/14 00:55:15;;;;;;;;;;;18.80;97.30;;;;;;4993442;28;19936;-87
2022/07/14 00:57:46;;;;;;;;;;;18.80;97.40;;;;;;4994679;28;19930;-86
2022/07/14 01:00:16;;;;;;;;;;;18.80;97.30;;;;;;4994404;28;20372;-88
2022/07/14 01:02:46;;;;;;;;;;;18.80;97.30;;;;;;4994657;28;19926;-87
2022/07/14 01:05:43;;;;;;;;;;;18.80;97.40;;;;;;4978663;28;19932;-88
2022/07/14 01:08:14;;;;;;;;;;;18.70;97.30;;;;;;4992176;28;19933;-86
2022/07/14 01:10:43;;;;;;;;;;;18.80;97.40;;;;;;4995684;28;19926;-87
2022/07/14 01:13:14;;;;;;;;;;;18.80;97.70;;;;;;4994527;28;19930;-87
2022/07/14 01:15:43;;;;;;;;;;;18.80;97.30;;;;;;4994758;28;19922;-87
2022/07/14 01:18:11;;;;;;;;;;;18.80;97.40;;;;;;5010982;28;19922;-87
2022/07/14 01:20:41;;;;;;;;;;;18.70;97.70;;;;;;4993311;28;19941;-86
2022/07/14 01:23:11;;;;;;;;;;;18.70;97.50;;;;;;4992417;28;19933;-88
2022/07/14 01:25:49;;;;;;;;;;;18.70;97.60;;;;;;5003062;28;19937;-87
2022/07/14 01:28:18;;;;;;;;;;;18.70;97.80;;;;;;4990654;28;19926;-86
2022/07/14 01:30:48;;;;;;;;;;;18.60;97.60;;;;;;4992878;28;19926;-87
2022/07/14 01:33:16;;;;;;;;;;;18.70;97.70;;;;;;4977860;28;19926;-86
2022/07/14 01:35:44;;;;;;;;;;;18.60;97.60;;;;;;4993433;28;19930;-88
2022/07/14 01:38:15;;;;;;;;;;;18.60;97.60;;;;;;4993400;28;19934;-86
2022/07/14 01:40:44;;;;;;;;;;;18.60;97.70;;;;;;5006484;28;19930;-87
2022/07/14 01:43:14;;;;;;;;;;;18.70;97.70;;;;;;4991281;28;19941;-86
2022/07/14 01:45:44;;;;;;;;;;;18.70;97.70;;;;;;4991580;28;19934;-86
2022/07/14 01:48:13;;;;;;;;;;;18.70;97.70;;;;;;4976003;28;20006;-86
2022/07/14 01:50:45;;;;;;;;;;;18.70;97.60;;;;;;4992785;28;19936;-86
2022/07/14 01:53:16;;;;;;;;;;;18.70;97.90;;;;;;4994125;28;19937;-87
2022/07/14 01:55:47;;;;;;;;;;;18.60;97.70;;;;;;4973463;28;19926;-86
2022/07/14 01:58:18;;;;;;;;;;;18.70;97.70;;;;;;4971013;28;19926;-87
2022/07/14 02:01:39;;;;;;;;;;;18.70;97.70;;;;;;4957743;28;19937;-86
2022/07/14 02:03:45;;;;;;;;;;;18.70;97.70;;;;;;4987470;28;19925;-86
2022/07/14 02:06:16;;;;;;;;;;;18.70;97.60;;;;;;4989547;28;19933;-85
2022/07/14 02:08:44;;;;;;;;;;;18.70;97.80;;;;;;5007439;28;20408;-87
2022/07/14 02:14:03;;;;;;;;;;;18.70;97.70;;;;;;4994459;28;19940;-86
2022/07/14 02:16:33;;;;;;;;;;;18.60;97.70;;;;;;5012715;28;20317;-86
2022/07/14 02:19:03;;;;;;;;;;;18.70;97.80;;;;;;4997180;28;19933;-87
2022/07/14 02:21:31;;;;;;;;;;;18.70;97.70;;;;;;4997312;28;19922;-86
2022/07/14 02:24:05;;;;;;;;;;;17.00;97.30;;;;;;4973391;28;19945;-85
2022/07/14 02:26:38;;;;;;;;;;;18.70;97.70;;;;;;4971796;28;19932;-87
2022/07/14 02:29:12;;;;;;;;;;;18.60;97.70;;;;;;5013505;28;19936;-86
2022/07/14 02:31:45;;;;;;;;;;;18.60;97.80;;;;;;4989392;28;19926;-86
2022/07/14 02:34:15;;;;;;;;;;;18.60;97.60;;;;;;4979848;28;19924;-87
2022/07/14 02:36:47;;;;;;;;;;;18.60;97.80;;;;;;4998865;28;19936;-86
2022/07/14 02:39:15;;;;;;;;;;;18.60;97.80;;;;;;5015703;28;19930;-86
2022/07/14 02:41:43;;;;;;;;;;;18.60;97.90;;;;;;4978925;28;19930;-86
2022/07/14 02:44:14;;;;;;;;;;;18.60;97.90;;;;;;5006850;28;19940;-86
2022/07/14 02:46:48;;;;;;;;;;;18.50;97.90;;;;;;4983666;28;19928;-86
2022/07/14 02:49:16;;;;;;;;;;;18.50;97.80;;;;;;4996488;28;19930;-86
2022/07/14 02:51:47;;;;;;;;;;;18.50;97.90;;;;;;5010423;28;19933;-86
2022/07/14 02:54:15;;;;;;;;;;;18.50;97.80;;;;;;4976480;28;20135;-87
2022/07/14 02:56:45;;;;;;;;;;;18.40;97.80;;;;;;4978198;28;19926;-87
2022/07/14 02:59:17;;;;;;;;;;;18.30;98.00;;;;;;5011462;28;19925;-86
2022/07/14 03:01:48;;;;;;;;;;;18.30;97.90;;;;;;5010831;28;19932;-88
2022/07/14 03:04:21;;;;;;;;;;;18.20;98.10;;;;;;4988609;28;19949;-85
2022/07/14 03:06:51;;;;;;;;;;;18.10;98.20;;;;;;4991618;28;19936;-87
2022/07/14 03:09:24;;;;;;;;;;;18.10;98.20;;;;;;4990772;28;19937;-88
2022/07/14 03:11:53;;;;;;;;;;;18.00;98.20;;;;;;5006294;28;19933;-87
2022/07/14 03:14:22;;;;;;;;;;;18.00;98.30;;;;;;4959381;28;19933;-87
2022/07/14 03:16:49;;;;;;;;;;;17.90;98.40;;;;;;4990886;28;19926;-87
2022/07/14 03:19:23;;;;;;;;;;;17.90;98.50;;;;;;4975487;28;19933;-88
2022/07/14 03:22:03;;;;;;;;;;;17.90;98.60;;;;;;5005635;28;19954;-85
2022/07/14 03:24:37;;;;;;;;;;;17.80;98.50;;;;;;4962728;28;19941;-85
2022/07/14 03:27:06;;;;;;;;;;;17.80;98.50;;;;;;4989529;28;19934;-86
2022/07/14 03:29:39;;;;;;;;;;;17.80;98.60;;;;;;4989884;28;19936;-86
2022/07/14 03:32:07;;;;;;;;;;;17.70;98.70;;;;;;4988751;28;19926;-87
2022/07/14 03:34:36;;;;;;;;;;;17.70;98.80;;;;;;4990227;28;19934;-87
2022/07/14 03:37:05;;;;;;;;;;;17.70;98.90;;;;;;4969635;28;19926;-87
2022/07/14 03:39:47;;;;;;;;;;;17.50;98.90;;;;;;4984393;28;19927;-84
2022/07/14 03:42:15;;;;;;;;;;;17.60;99.10;;;;;;4974124;28;19936;-87
2022/07/14 03:44:46;;;;;;;;;;;17.70;99.00;;;;;;4990965;28;19934;-86
2022/07/14 03:47:17;;;;;;;;;;;17.70;99.00;;;;;;5006088;28;19936;-86
2022/07/14 03:49:46;;;;;;;;;;;17.70;99.30;;;;;;4989240;28;20294;-86
2022/07/14 03:52:19;;;;;;;;;;;17.70;99.00;;;;;;4989227;28;19926;-88
2022/07/14 03:54:50;;;;;;;;;;;17.70;98.90;;;;;;4974338;28;19930;-87
2022/07/14 03:57:24;;;;;;;;;;;17.80;99.00;;;;;;5006311;28;19937;-88
2022/07/14 03:59:53;;;;;;;;;;;17.80;99.00;;;;;;5003595;28;19927;-88
2022/07/14 04:02:22;;;;;;;;;;;17.90;98.90;;;;;;4988427;28;20121;-86
2022/07/14 04:04:49;;;;;;;;;;;17.90;98.90;;;;;;4992668;28;19926;-87
2022/07/14 04:07:17;;;;;;;;;;;17.90;98.80;;;;;;5004479;28;19932;-86
2022/07/14 04:09:46;;;;;;;;;;;17.90;98.80;;;;;;4972588;28;19926;-86
2022/07/14 04:12:14;;;;;;;;;;;17.90;98.80;;;;;;4971361;28;19926;-86
2022/07/14 04:14:49;;;;;;;;;;;17.90;98.80;;;;;;4989510;28;20308;-87
2022/07/14 04:17:17;;;;;;;;;;;17.90;98.90;;;;;;5005853;28;19930;-88
2022/07/14 04:19:45;;;;;;;;;;;17.90;98.80;;;;;;4972696;28;19926;-89
2022/07/14 04:22:16;;;;;;;;;;;18.40;99.20;;;;;;4988282;28;19933;-86
2022/07/14 04:25:05;;;;;;;;;;;18.00;99.20;;;;;;4993659;28;19932;-85
2022/07/14 04:27:34;;;;;;;;;;;17.90;99.10;;;;;;4987664;28;20357;-87
2022/07/14 04:30:04;;;;;;;;;;;17.90;99.10;;;;;;4988478;28;19929;-87
2022/07/14 04:32:31;;;;;;;;;;;18.00;99.20;;;;;;4985234;28;19930;-89
2022/07/14 04:35:03;;;;;;;;;;;18.00;99.20;;;;;;5007415;28;19926;-88
2022/07/14 04:37:31;;;;;;;;;;;18.10;99.20;;;;;;4989498;28;20412;-87
2022/07/14 04:40:02;;;;;;;;;;;19.50;99.90;;;;;;4990287;28;19926;-86
2022/07/14 04:42:33;;;;;;;;;;;18.10;99.20;;;;;;4973410;28;19929;-87
2022/07/14 04:45:03;;;;;;;;;;;17.70;99.20;;;;;;5002156;28;20263;-88
2022/07/14 04:47:31;;;;;;;;;;;18.10;99.10;;;;;;4979574;28;19933;-86
2022/07/14 04:52:48;;;;;;;;;;;18.20;99.10;;;;;;4974456;28;19926;-86
2022/07/14 04:55:43;;;;;;;;;;;18.30;99.10;;;;;;4977965;28;19926;-85
2022/07/14 04:58:31;;;;;;;;;;;18.30;99.40;;;;;;4987802;28;19930;-85
2022/07/14 05:01:02;;;;;;;;;;;18.30;98.90;;;;;;4993334;28;19931;-86
2022/07/14 05:03:36;;;;;;;;;;;18.30;99.00;;;;;;4636337;28;9999796;-87
2022/07/14 05:06:07;;;;;;;;;;;17.00;98.40;;;;;;4999127;28;19930;-87
2022/07/14 05:08:37;;;;;;;;;;;18.30;98.50;;;;;;4986333;28;19930;-87
2022/07/14 05:11:08;;;;;;;;;;;19.20;98.80;;;;;;4987371;28;20257;-88
2022/07/14 05:13:41;;;;;;;;;;;18.30;98.30;;;;;;4974626;28;19930;-87
2022/07/14 05:16:09;;;;;;;;;;;18.20;98.10;;;;;;4975877;28;19925;-86
2022/07/14 05:18:37;;;;;;;;;;;18.20;98.20;;;;;;4984800;28;19937;-89
2022/07/14 05:21:05;;;;;;;;;;;18.20;98.00;;;;;;4984562;28;19926;-86
2022/07/14 05:23:36;;;;;;;;;;;18.20;98.00;;;;;;5003761;28;19940;-87
2022/07/14 05:26:11;;;;;;;;;;;18.20;97.80;;;;;;4991750;28;19941;-86
2022/07/14 05:28:40;;;;;;;;;;;18.20;97.60;;;;;;4987511;28;20364;-87
2022/07/14 05:31:10;;;;;;;;;;;18.10;97.50;;;;;;4971283;28;19925;-86
2022/07/14 05:33:51;;;;;;;;;;;18.10;97.70;;;;;;5005129;28;19926;-86
2022/07/14 05:36:20;;;;;;;;;;;18.10;97.40;;;;;;4961912;28;20312;-87
2022/07/14 05:38:50;;;;;;;;;;;18.20;97.30;;;;;;5004835;28;19926;-86
2022/07/14 05:41:21;;;;;;;;;;;18.10;97.30;;;;;;4975474;28;19932;-87
2022/07/14 05:43:49;;;;;;;;;;;18.10;97.40;;;;;;4996600;28;19949;-86
2022/07/14 05:46:18;;;;;;;;;;;18.10;97.40;;;;;;4968794;28;19932;-85
2022/07/14 05:48:47;;;;;;;;;;;18.20;97.20;;;;;;4957964;28;19933;-86
2022/07/14 05:51:18;;;;;;;;;;;18.10;96.80;;;;;;4983918;28;19930;-87
2022/07/14 05:53:53;;;;;;;;;;;18.10;96.70;;;;;;4968912;28;20213;-87
2022/07/14 05:56:28;;;;;;;;;;;18.10;96.60;;;;;;4991275;28;19941;-84
2022/07/14 05:59:00;;;;;;;;;;;18.20;96.30;;;;;;4996701;28;19926;-87
2022/07/14 06:01:52;;;;;;;;;;;18.10;96.10;;;;;;4966026;28;19938;-86
2022/07/14 06:04:22;;;;;;;;;;;18.10;95.50;;;;;;4983933;28;19932;-85
2022/07/14 06:06:51;;;;;;;;;;;18.10;95.40;;;;;;4962820;28;19937;-86
2022/07/14 06:09:21;;;;;;;;;;;18.20;95.30;;;;;;4994976;28;19922;-85
2022/07/14 06:11:50;;;;;;;;;;;18.20;95.20;;;;;;4948210;28;20293;-85
2022/07/14 06:14:21;;;;;;;;;;;18.20;95.20;;;;;;4979104;28;19930;-86
2022/07/14 06:16:51;;;;;;;;;;;18.20;95.00;;;;;;4994335;28;19946;-86
2022/07/14 06:19:23;;;;;;;;;;;18.20;94.80;;;;;;4981487;28;20003;-87
2022/07/14 06:21:52;;;;;;;;;;;18.30;94.80;;;;;;4996199;28;19938;-86
2022/07/14 06:24:25;;;;;;;;;;;18.30;94.90;;;;;;4966064;28;19933;-85
2022/07/14 06:27:03;;;;;;;;;;;18.30;94.70;;;;;;4963458;28;20448;-86
2022/07/14 06:29:32;;;;;;;;;;;18.40;94.50;;;;;;4980259;28;19930;-84
2022/07/14 06:32:03;;;;;;;;;;;18.40;94.40;;;;;;4977101;28;19930;-86
2022/07/14 06:34:33;;;;;;;;;;;18.40;94.10;;;;;;4975516;28;19933;-85
2022/07/14 06:37:20;;;;;;;;;;;18.40;94.00;;;;;;4978000;28;21228;-85
2022/07/14 06:39:49;;;;;;;;;;;18.50;94.10;;;;;;4965624;28;19926;-87
2022/07/14 06:42:20;;;;;;;;;;;18.70;94.00;;;;;;4982636;28;20106;-84
2022/07/14 06:45:10;;;;;;;;;;;18.50;93.80;;;;;;4973509;28;19925;-86
2022/07/14 06:47:57;;;;;;;;;;;;;;;;;;;;;
2022/07/14 06:50:37;;;;;;;;;;;18.40;93.20;;;;;;4955865;28;19930;-87
2022/07/14 06:53:05;;;;;;;;;;;18.40;93.50;;;;;;4984174;28;19930;-87
2022/07/14 06:55:39;;;;;;;;;;;18.50;93.30;;;;;;4970813;28;19941;-86
2022/07/14 06:58:08;;;;;;;;;;;18.50;93.10;;;;;;5004707;28;19945;-87
2022/07/14 07:00:45;;;;;;;;;;;18.50;93.20;;;;;;4990117;28;19941;-87
2022/07/14 07:03:15;;;;;;;;;;;18.50;93.00;;;;;;4999545;28;19926;-87
2022/07/14 07:08:46;;;;;;;;;;;18.70;92.50;;;;;;5001582;28;19936;-88
2022/07/14 07:11:15;;;;;;;;;;;18.70;92.20;;;;;;5005581;28;19925;-87
2022/07/14 07:13:44;;;;;;;;;;;18.70;92.30;;;;;;4989631;28;19926;-88
2022/07/14 07:16:14;;;;;;;;;;;18.80;92.00;;;;;;4997541;28;19926;-86
2022/07/14 07:18:46;;;;;;;;;;;18.80;92.10;;;;;;4986091;28;19927;-87
2022/07/14 07:21:14;;;;;;;;;;;18.80;92.00;;;;;;5005919;28;19933;-87
2022/07/14 07:23:46;;;;;;;;;;;19.80;92.10;;;;;;4976805;28;19941;-86
2022/07/14 07:26:17;;;;;;;;;;;19.10;91.70;;;;;;4969866;28;20357;-86
2022/07/14 07:28:47;;;;;;;;;;;19.00;91.30;;;;;;4973943;28;19929;-86
2022/07/14 07:31:16;;;;;;;;;;;19.00;91.20;;;;;;4969973;28;19926;-86
2022/07/14 07:33:48;;;;;;;;;;;19.00;91.00;;;;;;4979894;28;19927;-87
2022/07/14 07:36:18;;;;;;;;;;;19.10;91.20;;;;;;4989436;28;19926;-86
2022/07/14 07:42:01;;;;;;;;;;;19.20;90.70;;;;;;5003989;28;19930;-88
2022/07/14 07:44:49;;;;;;;;;;;19.30;90.40;;;;;;4989555;28;19926;-85
2022/07/14 07:47:25;;;;;;;;;;;19.30;90.30;;;;;;4999945;28;19949;-87
2022/07/14 07:49:55;;;;;;;;;;;19.30;90.30;;;;;;4982055;28;19925;-87
2022/07/14 07:52:31;;;;;;;;;;;19.40;90.10;;;;;;4958918;28;19933;-87
2022/07/14 07:55:01;;;;;;;;;;;19.40;89.90;;;;;;4970823;28;19944;-87
2022/07/14 07:57:39;;;;;;;;;;;19.50;90.30;;;;;;4978846;28;19926;-87
2022/07/14 08:00:08;;;;;;;;;;;19.50;89.00;;;;;;4986040;28;19925;-88
2022/07/14 08:03:03;;;;;;;;;;;19.50;89.30;;;;;;4979585;28;19945;-89
2022/07/14 08:05:34;;;;;;;;;;;19.50;89.60;;;;;;4979298;28;19937;-87
2022/07/14 08:08:15;;;;;;;;;;;19.60;88.50;;;;;;4980808;28;19933;-86
2022/07/14 08:10:45;;;;;;;;;;;19.60;87.80;;;;;;4993974;28;20377;-87
2022/07/14 08:13:14;;;;;;;;;;;19.70;87.40;;;;;;4967904;28;20301;-88
2022/07/14 08:15:43;;;;;;;;;;;19.70;87.10;;;;;;4994293;28;19929;-87
2022/07/14 08:18:13;;;;;;;;;;;19.70;86.90;;;;;;4968652;28;19929;-87
2022/07/14 08:20:42;;;;;;;;;;;19.70;86.40;;;;;;4966585;28;20150;-87
2022/07/14 08:23:11;;;;;;;;;;;19.80;86.60;;;;;;4986584;28;19929;-87
2022/07/14 08:25:42;;;;;;;;;;;19.90;86.60;;;;;;4985193;28;19930;-86
2022/07/14 08:28:15;;;;;;;;;;;20.10;86.30;;;;;;4969511;28;19926;-87
2022/07/14 08:30:43;;;;;;;;;;;20.10;85.50;;;;;;4965400;28;20485;-87
2022/07/14 08:33:14;;;;;;;;;;;20.00;84.80;;;;;;4948274;28;19930;-84
2022/07/14 08:35:47;;;;;;;;;;;20.10;84.00;;;;;;5000397;28;20440;-86
2022/07/14 08:38:26;;;;;;;;;;;20.70;84.70;;;;;;4951665;28;20011;-86
2022/07/14 08:40:55;;;;;;;;;;;20.20;83.40;;;;;;4968469;28;19925;-86
2022/07/14 08:43:23;;;;;;;;;;;20.30;83.00;;;;;;4985130;28;19926;-86
2022/07/14 08:45:54;;;;;;;;;;;20.30;83.60;;;;;;5003098;28;19932;-87
2022/07/14 08:48:22;;;;;;;;;;;20.40;83.70;;;;;;4981329;28;19921;-87
2022/07/14 08:50:50;;;;;;;;;;;20.50;83.50;;;;;;4999558;28;20426;-88
2022/07/14 08:53:19;;;;;;;;;;;20.60;82.90;;;;;;4983745;28;19929;-87
2022/07/14 08:55:48;;;;;;;;;;;20.70;81.60;;;;;;4975486;28;20374;-87
2022/07/14 08:58:17;;;;;;;;;;;20.70;81.00;;;;;;4973893;28;19946;-85
2022/07/14 09:00:45;;;;;;;;;;;20.70;81.30;;;;;;4983925;28;19926;-86
2022/07/14 09:03:13;;;;;;;;;;;20.80;81.10;;;;;;4982291;28;19934;-87
2022/07/14 09:06:04;;;;;;;;;;;20.80;81.40;;;;;;4975137;28;19926;-88
2022/07/14 09:08:55;;;;;;;;;;;20.80;80.50;;;;;;4962618;28;19933;-87
2022/07/14 09:11:24;;;;;;;;;;;20.90;80.60;;;;;;4998621;28;19926;-87
2022/07/14 09:13:53;;;;;;;;;;;21.00;80.40;;;;;;4975436;28;20400;-88
2022/07/14 09:16:24;;;;;;;;;;;21.10;80.20;;;;;;4986744;28;20265;-87
2022/07/14 09:19:10;;;;;;;;;;;22.50;79.40;;;;;;5003950;28;20597;-87
2022/07/14 09:21:52;;;;;;;;;;;21.20;77.40;;;;;;4982392;28;19929;-87
2022/07/14 09:24:46;;;;;;;;;;;21.30;76.80;;;;;;4958192;28;19925;-87
2022/07/14 09:27:21;;;;;;;;;;;21.40;77.50;;;;;;5007812;28;19945;-87
2022/07/14 09:29:55;;;;;;;;;;;21.50;78.00;;;;;;4986200;28;19933;-86
2022/07/14 09:32:42;;;;;;;;;;;21.50;77.20;;;;;;4986778;28;19926;-87
2022/07/14 09:35:11;;;;;;;;;;;21.30;77.10;;;;;;4972610;28;19933;-85
2022/07/14 09:37:49;;;;;;;;;;;21.70;76.90;;;;;;4994057;28;19930;-86
2022/07/14 09:40:31;;;;;;;;;;;21.80;76.30;;;;;;5006957;28;19930;-86
2022/07/14 09:43:03;;;;;;;;;;;21.80;76.40;;;;;;5003866;28;19933;-88
2022/07/14 09:45:31;;;;;;;;;;;21.90;76.30;;;;;;5007302;28;19917;-87
2022/07/14 09:48:07;;;;;;;;;;;22.00;76.10;;;;;;5003472;28;19922;-87
2022/07/14 09:50:40;;;;;;;;;;;22.00;75.10;;;;;;5007734;28;19937;-87
2022/07/14 09:53:09;;;;;;;;;;;21.80;75.30;;;;;;4969550;28;19936;-88
2022/07/14 09:55:39;;;;;;;;;;;22.20;75.00;;;;;;4989482;28;19930;-87
2022/07/14 09:58:07;;;;;;;;;;;22.20;75.00;;;;;;4958450;28;20309;-88
2022/07/14 10:00:39;;;;;;;;;;;22.30;74.80;;;;;;5006429;28;19926;-88
2022/07/14 10:03:08;;;;;;;;;;;22.40;74.80;;;;;;4983234;28;19941;-88
2022/07/14 10:05:39;;;;;;;;;;;22.50;74.20;;;;;;4958909;28;19926;-89
2022/07/14 10:08:11;;;;;;;;;;;22.60;73.00;;;;;;5006929;28;19941;-88
2022/07/14 10:10:42;;;;;;;;;;;22.70;72.90;;;;;;4970295;28;19937;-88
2022/07/14 10:13:18;;;;;;;;;;;22.80;72.90;;;;;;4989475;28;19937;-87
2022/07/14 10:15:47;;;;;;;;;;;22.80;72.00;;;;;;4986260;28;19926;-86
2022/07/14 10:18:15;;;;;;;;;;;23.00;71.70;;;;;;5009628;28;19937;-87
2022/07/14 10:20:45;;;;;;;;;;;23.00;70.50;;;;;;4991175;28;19926;-87
2022/07/14 10:23:29;;;;;;;;;;;23.10;71.10;;;;;;5011150;28;19925;-88
2022/07/14 10:25:59;;;;;;;;;;;23.20;71.00;;;;;;4986788;28;19926;-87
2022/07/14 10:28:41;;;;;;;;;;;23.20;70.20;;;;;;4972403;28;20190;-86
2022/07/14 10:31:09;;;;;;;;;;;23.40;71.40;;;;;;4985268;28;19929;-86
2022/07/14 10:33:53;;;;;;;;;;;23.40;70.90;;;;;;4964594;28;19926;-86
2022/07/14 10:36:24;;;;;;;;;;;23.60;69.80;;;;;;4996827;28;19926;-86
2022/07/14 10:39:14;;;;;;;;;;;23.60;68.60;;;;;;5004562;28;19926;-86
2022/07/14 10:42:08;;;;;;;;;;;23.60;69.30;;;;;;4971809;28;19929;-88
2022/07/14 10:44:46;;;;;;;;;;;23.50;69.00;;;;;;4998010;28;19933;-88
2022/07/14 10:47:17;;;;;;;;;;;23.40;69.50;;;;;;4977250;28;19930;-88
2022/07/14 10:50:08;;;;;;;;;;;23.40;69.60;;;;;;4956040;28;19937;-87
2022/07/14 10:52:40;;;;;;;;;;;23.50;69.30;;;;;;4998856;28;19933;-87
2022/07/14 10:55:16;;;;;;;;;;;23.50;69.30;;;;;;4989237;28;19929;-86
2022/07/14 10:58:06;;;;;;;;;;;23.60;69.70;;;;;;4982580;28;19938;-87
2022/07/14 11:00:55;;;;;;;;;;;22.70;68.80;;;;;;4941529;28;19927;-88
2022/07/14 11:03:28;;;;;;;;;;;23.80;68.00;;;;;;4968252;28;19946;-88
2022/07/14 11:06:09;;;;;;;;;;;23.80;68.20;;;;;;5006500;28;19926;-89
2022/07/14 11:09:18;;;;;;;;;;;23.90;68.30;;;;;;4988022;28;19930;-88
2022/07/14 11:12:07;;;;;;;;;;;23.90;68.40;;;;;;5002402;28;19927;-88
2022/07/14 11:14:41;;;;;;;;;;;24.00;67.10;;;;;;4988053;28;19933;-88
2022/07/14 11:17:31;;;;;;;;;;;24.10;67.00;;;;;;4990636;28;19933;-88
2022/07/14 11:20:01;;;;;;;;;;;24.20;67.10;;;;;;4999453;28;19932;-86
2022/07/14 11:22:30;;;;;;;;;;;24.40;67.30;;;;;;4967265;28;19926;-87
2022/07/14 11:24:59;;;;;;;;;;;24.50;67.90;;;;;;4986834;28;19926;-88
2022/07/14 11:27:38;;;;;;;;;;;24.60;66.50;;;;;;5003287;28;19937;-88
2022/07/14 11:30:29;;;;;;;;;;;24.50;65.30;;;;;;4987317;28;19930;-87
2022/07/14 11:33:09;;;;;;;;;;;24.30;65.50;;;;;;4985470;28;19926;-88
2022/07/14 11:39:11;;;;;;;;;;;24.40;64.90;;;;;;4980404;28;19949;-88
2022/07/14 11:41:46;;;;;;;;;;;24.70;65.20;;;;;;4978109;28;19930;-89
2022/07/14 11:44:38;;;;;;;;;;;24.70;64.40;;;;;;4988434;28;19934;-89
2022/07/14 11:47:17;;;;;;;;;;;24.90;64.30;;;;;;4975832;28;20274;-86
2022/07/14 11:49:53;;;;;;;;;;;25.00;64.30;;;;;;4985764;28;19929;-89
2022/07/14 11:52:32;;;;;;;;;;;25.20;63.40;;;;;;5000687;28;19944;-88
2022/07/14 11:55:04;;;;;;;;;;;25.30;63.90;;;;;;4986475;28;19933;-87
2022/07/14 11:57:35;;;;;;;;;;;25.50;62.80;;;;;;4985758;28;19926;-87
2022/07/14 12:00:08;;;;;;;;;;;25.50;62.70;;;;;;4986026;28;19937;-89
2022/07/14 12:02:49;;;;;;;;;;;25.50;61.50;;;;;;4983492;28;19937;-87
2022/07/14 12:05:26;;;;;;;;;;;26.80;62.20;;;;;;4978830;28;19926;-87
2022/07/14 12:07:54;;;;;;;;;;;25.50;61.00;;;;;;4985913;28;19929;-84
2022/07/14 12:10:52;;;;;;;;;;;25.40;61.00;;;;;;4984751;28;19925;-86
2022/07/14 12:13:26;;;;;;;;;;;25.50;61.70;;;;;;4970886;28;20427;-88
2022/07/14 12:15:59;;;;;;;;;;;25.60;61.00;;;;;;4980113;28;20311;-89
2022/07/14 12:18:28;;;;;;;;;;;25.70;59.90;;;;;;4970648;28;19930;-90
2022/07/14 12:20:59;;;;;;;;;;;25.70;60.00;;;;;;4969624;28;19925;-89
2022/07/14 12:23:28;;;;;;;;;;;25.70;59.80;;;;;;4988442;28;19937;-89
2022/07/14 12:26:01;;;;;;;;;;;25.80;60.20;;;;;;4996962;28;19926;-90
2022/07/14 12:28:33;;;;;;;;;;;25.80;59.70;;;;;;4970054;28;19929;-88
2022/07/14 12:31:02;;;;;;;;;;;26.20;60.10;;;;;;4953776;28;19936;-88
2022/07/14 12:33:58;;;;;;;;;;;25.90;60.70;;;;;;4988188;28;19933;-89
2022/07/14 12:36:35;;;;;;;;;;;26.00;59.50;;;;;;4984326;28;19926;-87
2022/07/14 12:39:07;;;;;;;;;;;25.90;58.50;;;;;;4965686;28;19933;-87
2022/07/14 12:41:34;;;;;;;;;;;25.90;58.70;;;;;;4964697;28;19926;-88
2022/07/14 12:44:05;;;;;;;;;;;26.10;59.60;;;;;;4985432;28;19933;-89
2022/07/14 12:46:33;;;;;;;;;;;26.30;59.70;;;;;;4957026;28;19946;-90
2022/07/14 12:49:07;;;;;;;;;;;26.60;59.40;;;;;;4980076;28;19941;-86
2022/07/14 12:51:45;;;;;;;;;;;26.80;59.90;;;;;;4985013;28;20396;-89
2022/07/14 12:54:34;;;;;;;;;;;26.90;59.20;;;;;;4975417;28;21420;-87
2022/07/14 12:57:23;;;;;;;;;;;27.00;58.40;;;;;;4983806;28;19936;-86
2022/07/14 12:59:55;;;;;;;;;;;27.10;58.50;;;;;;4997429;28;20119;-87
2022/07/14 13:02:23;;;;;;;;;;;27.20;59.50;;;;;;4998070;28;19933;-88
2022/07/14 13:05:00;;;;;;;;;;;27.30;59.10;;;;;;4983794;28;19937;-89
2022/07/14 13:07:36;;;;;;;;;;;27.10;57.90;;;;;;4983720;28;19936;-87
2022/07/14 13:10:19;;;;;;;;;;;27.10;59.00;;;;;;5001126;28;19929;-87
2022/07/14 13:12:51;;;;;;;;;;;27.10;59.50;;;;;;4993225;28;19933;-88
2022/07/14 13:15:26;;;;;;;;;;;27.00;58.70;;;;;;4998591;28;19937;-87
2022/07/14 13:18:02;;;;;;;;;;;26.90;58.40;;;;;;4983555;28;19926;-88
2022/07/14 13:20:47;;;;;;;;;;;27.00;58.20;;;;;;4984274;28;19926;-86
2022/07/14 13:23:28;;;;;;;;;;;27.10;58.00;;;;;;4982086;28;20309;-88
2022/07/14 13:25:58;;;;;;;;;;;27.20;58.00;;;;;;4982808;28;19930;-88
2022/07/14 13:28:31;;;;;;;;;;;27.30;57.50;;;;;;4986375;28;19926;-86
2022/07/14 13:31:05;;;;;;;;;;;27.60;58.00;;;;;;4986731;28;19926;-88
2022/07/14 13:33:34;;;;;;;;;;;27.70;58.10;;;;;;4984327;28;20076;-86
2022/07/14 13:36:03;;;;;;;;;;;27.90;57.60;;;;;;4959366;28;19941;-88
2022/07/14 13:38:34;;;;;;;;;;;28.10;58.00;;;;;;4986440;28;19934;-91
2022/07/14 13:41:03;;;;;;;;;;;28.40;57.30;;;;;;4985286;28;19930;-93
2022/07/14 13:43:30;;;;;;;;;;;28.80;56.90;;;;;;4979089;28;19941;-89
2022/07/14 13:46:00;;;;;;;;;;;29.00;57.50;;;;;;4999585;28;19925;-88
2022/07/14 13:48:28;;;;;;;;;;;29.10;55.90;;;;;;4992953;28;20433;-86
2022/07/14 13:53:42;;;;;;;;;;;29.20;56.20;;;;;;4987221;28;19926;-87
2022/07/14 13:56:14;;;;;;;;;;;29.00;55.80;;;;;;4982314;28;19930;-87
2022/07/14 13:58:42;;;;;;;;;;;29.40;55.50;;;;;;5001068;28;19929;-88
2022/07/14 14:01:18;;;;;;;;;;;29.50;54.80;;;;;;4983411;28;20301;-87
2022/07/14 14:04:17;;;;;;;;;;;29.50;55.60;;;;;;4976915;28;19930;-88
2022/07/14 14:06:56;;;;;;;;;;;29.60;55.50;;;;;;4997253;28;19993;-93
2022/07/14 14:09:27;;;;;;;;;;;29.80;55.00;;;;;;4951128;28;19926;-91
2022/07/14 14:11:57;;;;;;;;;;;30.10;55.00;;;;;;4982365;28;19930;-86
2022/07/14 14:14:25;;;;;;;;;;;30.40;54.70;;;;;;4979151;28;19930;-91
2022/07/14 14:16:54;;;;;;;;;;;30.70;54.50;;;;;;4960732;28;19930;-91
2022/07/14 14:19:24;;;;;;;;;;;30.80;54.50;;;;;;4978788;28;20547;-90
2022/07/14 14:21:52;;;;;;;;;;;30.90;54.60;;;;;;4966548;28;19926;-92
2022/07/14 14:24:20;;;;;;;;;;;31.20;54.60;;;;;;4997325;28;19926;-94
2022/07/14 14:26:51;;;;;;;;;;;31.20;53.90;;;;;;4974767;28;19943;-93
2022/07/14 14:29:34;;;;;;;;;;;31.00;53.60;;;;;;4977814;28;20371;-95
2022/07/14 14:32:40;;;;;;;;;;;32.10;55.20;;;;;;4958944;28;19937;-92
2022/07/14 14:35:41;;;;;;;;;;;29.90;54.40;;;;;;4995193;28;19944;-92
2022/07/14 14:38:12;;;;;;;;;;;28.20;54.30;;;;;;4973057;28;19949;-93
2022/07/14 14:40:49;;;;;;;;;;;29.20;55.00;;;;;;4979132;28;19934;-92
2022/07/14 14:43:20;;;;;;;;;;;29.00;55.70;;;;;;4977586;28;19926;-94
2022/07/14 14:45:54;;;;;;;;;;;28.80;55.60;;;;;;4988442;28;19925;-94
2022/07/14 14:48:43;;;;;;;;;;;28.60;55.90;;;;;;4975970;28;19936;-93
2022/07/14 14:52:01;;;;;;;;;;;28.30;55.90;;;;;;4999159;28;19945;-93
2022/07/14 14:54:55;;;;;;;;;;;;;;;;;;;;;
2022/07/14 14:57:31;;;;;;;;;;;29.10;56.70;;;;;;4990263;28;19926;-95
2022/07/14 15:00:09;;;;;;;;;;;29.70;55.60;;;;;;4989650;28;19934;-93
2022/07/14 15:03:21;;;;;;;;;;;29.30;55.50;;;;;;4991408;28;19940;-92
2022/07/14 15:06:16;;;;;;;;;;;29.10;55.40;;;;;;4974590;28;19934;-94
2022/07/14 15:12:17;;;;;;;;;;;29.00;55.50;;;;;;4978059;28;19926;-93
2022/07/14 15:14:53;;;;;;;;;;;28.90;55.20;;;;;;5019238;23;20442;-92
2022/07/14 15:17:27;;;;;;;;;;;28.70;55.90;;;;;;5017877;28;19930;-90
2022/07/14 15:20:50;;;;;;;;;;;28.70;56.00;;;;;;4995938;28;19925;-90